Time;durP1;ratioP1;P1;durP2;ratioP2;P2;SDS_P1;SDS_P2;PMS_P1;PMS_P2;Temp;Humidity;BMP_temperature;BMP_pressure;BME280_temperature;BME280_humidity;BME280_pressure;Samples;Min_cycle;Max_cycle;Signal;HPM_P1;HPM_P2
2021/08/11 00:00:40;;;;;;;9.25;5.57;;;;;;;23.60;44.30;100772.59;4429139;32;20018;-68
2021/08/11 00:03:06;;;;;;;11.38;5.57;;;;;;;23.49;44.36;100774.22;4426873;32;20037;-68
2021/08/11 00:05:32;;;;;;;9.15;4.75;;;;;;;23.43;44.47;100779.19;4429282;32;20410;-68
2021/08/11 00:07:58;;;;;;;9.50;5.15;;;;;;;23.36;44.45;100770.34;4428070;32;20014;-68
2021/08/11 00:10:24;;;;;;;8.85;5.57;;;;;;;23.49;44.30;100770.53;4430183;32;20077;-68
2021/08/11 00:12:50;;;;;;;8.27;4.75;;;;;;;23.34;44.61;100770.84;4430200;32;20055;-69
2021/08/11 00:15:16;;;;;;;8.60;5.15;;;;;;;23.44;44.58;100777.13;4429671;32;20492;-68
2021/08/11 00:17:41;;;;;;;9.07;5.22;;;;;;;23.53;44.32;100771.84;4428556;32;20578;-68
2021/08/11 00:20:08;;;;;;;9.48;4.75;;;;;;;23.45;44.44;100779.47;4427516;32;20385;-68
2021/08/11 00:22:33;;;;;;;10.57;4.90;;;;;;;23.57;44.31;100771.56;4430512;32;20478;-68
2021/08/11 00:24:59;;;;;;;6.95;4.60;;;;;;;23.42;44.34;100765.34;4430728;32;20042;-68
2021/08/11 00:27:25;;;;;;;8.63;4.50;;;;;;;23.51;44.21;100767.94;4427439;32;20144;-68
2021/08/11 00:29:51;;;;;;;8.20;4.95;;;;;;;23.42;44.24;100773.97;4429388;32;20188;-68
2021/08/11 00:32:16;;;;;;;7.68;4.60;;;;;;;23.36;44.37;100776.06;4429272;32;20400;-68
2021/08/11 00:34:42;;;;;;;9.60;4.37;;;;;;;23.41;44.43;100781.78;4429438;32;20026;-68
2021/08/11 00:37:08;;;;;;;9.93;4.53;;;;;;;23.29;44.69;100777.38;4421219;32;20042;-68
2021/08/11 00:39:34;;;;;;;9.55;4.93;;;;;;;23.25;44.79;100771.16;4429789;32;21233;-68
2021/08/11 00:42:00;;;;;;;7.82;5.00;;;;;;;23.23;44.80;100779.50;4419988;32;20022;-68
2021/08/11 00:44:25;;;;;;;10.00;4.75;;;;;;;23.23;44.87;100781.56;4430180;32;20037;-68
2021/08/11 00:46:52;;;;;;;9.82;4.90;;;;;;;23.27;44.91;100774.28;4428838;32;20052;-68
2021/08/11 00:49:18;;;;;;;15.15;5.50;;;;;;;23.26;44.99;100777.69;4429507;32;20037;-68
2021/08/11 00:51:45;;;;;;;8.30;4.95;;;;;;;23.62;44.34;100772.87;4426613;32;20095;-68
2021/08/11 00:54:12;;;;;;;6.75;4.70;;;;;;;23.75;44.04;100767.31;4428080;32;20037;-68
2021/08/11 00:56:43;;;;;;;9.93;4.78;;;;;;;23.92;43.63;100768.00;4427954;32;20030;-68
2021/08/11 00:59:11;;;;;;;9.55;5.25;;;;;;;24.21;43.07;100764.47;4426839;32;20045;-68
2021/08/11 01:01:39;;;;;;;10.10;5.65;;;;;;;24.11;43.22;100766.88;4427462;32;20406;-68
2021/08/11 01:04:07;;;;;;;8.30;4.68;;;;;;;24.11;43.26;100766.88;4428258;32;20038;-68
2021/08/11 01:06:36;;;;;;;10.02;5.12;;;;;;;24.13;43.25;100764.25;4429761;32;20064;-68
2021/08/11 01:09:02;;;;;;;8.90;5.20;;;;;;;24.25;43.00;100756.34;4427213;32;20399;-68
2021/08/11 01:11:29;;;;;;;10.60;5.07;;;;;;;24.02;43.20;100760.69;4428988;32;20047;-68
2021/08/11 01:13:57;;;;;;;12.57;4.78;;;;;;;24.06;43.28;100764.03;4427341;32;20402;-68
2021/08/11 01:16:22;;;;;;;7.55;4.43;;;;;;;24.18;43.05;100757.72;4429100;32;20044;-69
2021/08/11 01:18:48;;;;;;;6.68;4.82;;;;;;;24.13;43.09;100751.97;4427823;32;20068;-68
2021/08/11 01:21:32;;;;;;;11.45;4.70;;;;;;;24.14;43.03;100739.94;4429666;32;20405;-68
2021/08/11 01:29:30;;;;;;;11.50;4.87;;;;;;;24.76;42.26;100755.47;3998388;31;15015789;-69
2021/08/11 01:32:10;;;;;;;11.73;4.80;;;;;;;24.76;42.26;100755.47;4454634;32;20829;-68
2021/08/11 01:37:19;;;;;;;7.70;5.00;;;;;;;24.74;42.24;100763.84;3988816;32;15023294;-69
2021/08/11 01:39:50;;;;;;;7.35;4.12;;;;;;;24.74;42.24;100763.84;4449322;32;20021;-69
2021/08/11 01:42:23;;;;;;;7.85;4.70;;;;;;;24.37;42.83;100758.63;4449232;32;20030;-69
2021/08/11 01:45:05;;;;;;;10.82;4.95;;;;;;;24.23;43.11;100758.97;4446193;32;20091;-69
2021/08/11 01:47:38;;;;;;;8.75;4.55;;;;;;;24.08;43.15;100762.19;4448368;32;20818;-68
2021/08/11 01:50:06;;;;;;;8.45;5.28;;;;;;;24.11;43.23;100761.12;4450225;32;20045;-69
2021/08/11 01:52:38;;;;;;;10.43;5.35;;;;;;;24.08;43.49;100752.81;4451156;32;20112;-69
2021/08/11 01:55:05;;;;;;;10.18;5.00;;;;;;;23.94;43.78;100760.44;4442780;32;20151;-69
2021/08/11 01:57:31;;;;;;;11.00;5.10;;;;;;;23.86;43.91;100759.41;4448229;32;20029;-69
2021/08/11 01:59:59;;;;;;;7.30;5.03;;;;;;;23.80;44.05;100763.66;4445754;32;20029;-69
2021/08/11 02:02:25;;;;;;;9.88;5.47;;;;;;;23.91;43.84;100764.38;4446485;32;20097;-69
2021/08/11 02:04:50;;;;;;;15.90;4.87;;;;;;;23.86;43.95;100755.75;4445497;32;20049;-69
2021/08/11 02:07:17;;;;;;;9.30;5.12;;;;;;;23.81;44.08;100754.50;4445544;32;20597;-69
2021/08/11 02:09:44;;;;;;;8.65;5.25;;;;;;;23.84;44.11;100749.78;4446884;32;20044;-69
2021/08/11 02:12:09;;;;;;;10.25;4.78;;;;;;;23.85;44.05;100751.31;4446034;32;20103;-69
2021/08/11 02:14:39;;;;;;;8.43;5.10;;;;;;;23.82;44.03;100750.31;4448695;32;20132;-69
2021/08/11 02:17:05;;;;;;;7.47;4.85;;;;;;;23.94;43.76;100757.56;4446515;32;20148;-69
2021/08/11 02:19:32;;;;;;;11.85;4.97;;;;;;;23.77;44.16;100748.22;4446422;32;20061;-69
2021/08/11 02:21:58;;;;;;;9.80;5.10;;;;;;;24.00;43.86;100743.97;4442753;32;20064;-69
2021/08/11 02:24:24;;;;;;;7.55;5.12;;;;;;;23.83;43.91;100739.59;4446057;32;20033;-69
2021/08/11 02:26:57;;;;;;;8.85;5.07;;;;;;;23.88;44.09;100738.75;4449469;32;20029;-69
2021/08/11 02:32:19;;;;;;;11.25;5.35;;;;;;;24.38;43.48;100739.25;3987145;32;15048129;-68
2021/08/11 02:37:37;;;;;;;8.77;5.35;;;;;;;24.45;43.38;100745.19;3984893;32;15025751;-69
2021/08/11 02:40:10;;;;;;;9.52;5.35;;;;;;;24.45;43.38;100745.19;4435328;32;20513;-69
2021/08/11 02:42:42;;;;;;;11.75;5.45;;;;;;;24.07;43.85;100751.22;4431657;32;20057;-69
2021/08/11 02:45:13;;;;;;;9.02;5.32;;;;;;;23.89;44.09;100754.69;4436495;32;20157;-69
2021/08/11 02:47:40;;;;;;;10.82;5.50;;;;;;;24.01;44.02;100759.88;4432795;32;20045;-70
2021/08/11 02:50:07;;;;;;;11.15;5.12;;;;;;;23.86;44.26;100756.53;4435045;32;20034;-69
2021/08/11 02:52:34;;;;;;;9.63;5.57;;;;;;;23.65;44.70;100749.59;4435434;32;20065;-69
2021/08/11 02:55:01;;;;;;;9.88;5.32;;;;;;;23.63;44.80;100757.97;4436768;32;20056;-69
2021/08/11 02:57:29;;;;;;;9.98;5.07;;;;;;;23.59;44.99;100748.06;4436860;32;20084;-69
2021/08/11 02:59:56;;;;;;;11.40;6.32;;;;;;;23.63;45.03;100751.44;4435757;32;20104;-69
2021/08/11 03:02:23;;;;;;;11.15;6.00;;;;;;;23.67;44.90;100751.94;4436495;32;20102;-69
2021/08/11 03:04:50;;;;;;;12.23;6.07;;;;;;;23.74;44.66;100754.28;4437624;32;20076;-69
2021/08/11 03:07:17;;;;;;;8.52;5.57;;;;;;;23.67;44.77;100746.97;4435218;32;20068;-69
2021/08/11 03:09:42;;;;;;;10.82;5.80;;;;;;;23.65;44.81;100743.06;4433811;32;20060;-69
2021/08/11 03:12:11;;;;;;;10.77;5.87;;;;;;;23.62;44.75;100739.16;4433634;32;20022;-69
2021/08/11 03:14:39;;;;;;;9.98;5.32;;;;;;;23.70;44.80;100740.16;4435768;32;20386;-69
2021/08/11 03:17:10;;;;;;;10.93;5.97;;;;;;;23.76;44.71;100743.78;4435325;32;20080;-69
2021/08/11 03:19:37;;;;;;;11.93;6.47;;;;;;;23.84;44.37;100739.03;4438320;32;20095;-69
2021/08/11 03:22:03;;;;;;;11.18;6.85;;;;;;;23.57;44.88;100736.31;4436291;32;20145;-69
2021/08/11 03:24:29;;;;;;;12.85;6.68;;;;;;;23.65;44.71;100728.72;4435115;32;20101;-69
2021/08/11 03:26:54;;;;;;;20.23;7.20;;;;;;;23.60;44.64;100730.28;4433362;32;20178;-69
2021/08/11 03:29:20;;;;;;;11.75;7.10;;;;;;;23.61;44.79;100728.97;4432310;32;20046;-69
2021/08/11 03:31:46;;;;;;;14.48;6.53;;;;;;;23.66;44.61;100730.25;4436881;32;20046;-69
2021/08/11 03:34:12;;;;;;;9.48;6.57;;;;;;;23.61;44.80;100725.31;4434838;32;20446;-69
2021/08/11 03:36:37;;;;;;;10.02;6.10;;;;;;;23.60;44.69;100730.28;4431555;32;20117;-70
2021/08/11 03:39:06;;;;;;;14.07;7.22;;;;;;;23.63;44.81;100742.81;4431434;32;20092;-69
2021/08/11 03:41:32;;;;;;;11.95;6.78;;;;;;;23.60;44.86;100735.25;4435191;32;20455;-69
2021/08/11 03:43:57;;;;;;;9.85;6.43;;;;;;;23.59;44.78;100745.19;4434037;32;20195;-69
2021/08/11 03:46:23;;;;;;;9.65;6.18;;;;;;;23.53;44.87;100750.94;4432954;32;20719;-69
2021/08/11 03:48:50;;;;;;;11.27;6.60;;;;;;;23.54;44.80;100743.91;4418373;32;20110;-69
2021/08/11 03:51:15;;;;;;;10.68;6.80;;;;;;;23.48;44.89;100749.66;4423168;32;20388;-69
2021/08/11 03:53:41;;;;;;;15.05;7.65;;;;;;;23.02;45.98;100746.66;4422774;32;20412;-69
2021/08/11 03:56:07;;;;;;;13.45;6.93;;;;;;;23.28;45.28;100746.31;4424900;32;20129;-69
2021/08/11 03:58:33;;;;;;;15.68;7.00;;;;;;;23.22;45.51;100739.78;4424880;32;20058;-69
2021/08/11 04:00:59;;;;;;;12.32;7.50;;;;;;;23.11;45.83;100729.13;4422396;32;20060;-69
2021/08/11 04:03:25;;;;;;;15.07;8.02;;;;;;;23.00;45.99;100737.75;4424376;32;20030;-69
2021/08/11 04:05:51;;;;;;;14.18;7.43;;;;;;;23.03;45.67;100733.84;4420584;32;20108;-69
2021/08/11 04:08:16;;;;;;;14.48;7.93;;;;;;;23.00;46.04;100740.62;4424738;32;20013;-69
2021/08/11 04:10:45;;;;;;;12.90;7.68;;;;;;;22.91;46.22;100735.16;4424775;32;20089;-69
2021/08/11 04:13:14;;;;;;;14.18;8.05;;;;;;;23.03;46.01;100735.94;4422113;32;20080;-69
2021/08/11 04:15:41;;;;;;;12.13;7.90;;;;;;;23.13;45.74;100729.38;4420582;32;20058;-69
2021/08/11 04:18:07;;;;;;;13.82;7.32;;;;;;;22.98;46.00;100734.63;4426368;32;20874;-69
2021/08/11 04:20:33;;;;;;;13.60;8.13;;;;;;;22.78;46.35;100737.00;4423796;32;20069;-69
2021/08/11 04:22:59;;;;;;;13.25;8.18;;;;;;;22.79;46.52;100736.47;4427034;32;20436;-69
2021/08/11 04:25:24;;;;;;;15.40;7.55;;;;;;;22.93;46.02;100738.31;4424489;32;20145;-69
2021/08/11 04:27:50;;;;;;;13.57;7.47;;;;;;;22.99;46.04;100749.78;4421045;32;20042;-69
2021/08/11 04:30:16;;;;;;;11.15;7.80;;;;;;;22.97;46.09;100746.63;4429188;32;20147;-69
2021/08/11 04:32:42;;;;;;;10.52;7.35;;;;;;;23.06;45.78;100743.47;4422917;32;20050;-69
2021/08/11 04:35:09;;;;;;;16.20;7.90;;;;;;;22.81;46.15;100735.97;4422405;32;20382;-69
2021/08/11 04:37:37;;;;;;;9.32;7.10;;;;;;;22.85;46.18;100736.47;4420766;32;20531;-69
2021/08/11 04:40:06;;;;;;;12.32;6.80;;;;;;;23.07;45.89;100724.97;4423695;32;20662;-69
2021/08/11 04:42:32;;;;;;;15.05;6.82;;;;;;;22.94;46.23;100725.50;4422056;32;20458;-69
2021/08/11 04:44:58;;;;;;;13.40;7.50;;;;;;;22.73;46.37;100726.34;4420849;32;20453;-69
2021/08/11 04:47:24;;;;;;;14.60;7.03;;;;;;;22.93;45.82;100728.91;4423275;32;20029;-69
2021/08/11 04:49:50;;;;;;;17.20;7.75;;;;;;;22.97;45.95;100733.06;4419460;32;20130;-69
2021/08/11 04:52:16;;;;;;;15.05;7.30;;;;;;;23.01;45.99;100719.22;4423087;32;20022;-69
2021/08/11 04:54:42;;;;;;;14.95;7.32;;;;;;;23.00;45.84;100717.66;4424190;32;20060;-69
2021/08/11 04:57:08;;;;;;;12.32;7.53;;;;;;;22.89;46.03;100734.12;4423092;32;20353;-69
2021/08/11 04:59:34;;;;;;;14.75;7.40;;;;;;;22.90;45.90;100730.75;4427582;32;20149;-69
2021/08/11 05:01:59;;;;;;;14.60;7.60;;;;;;;23.05;45.64;100725.50;4420585;32;20400;-69
2021/08/11 05:04:27;;;;;;;14.20;6.50;;;;;;;22.93;45.92;100723.97;4419890;32;20064;-69
2021/08/11 05:06:53;;;;;;;16.60;7.47;;;;;;;23.06;45.75;100717.66;4421066;32;20053;-69
2021/08/11 05:09:18;;;;;;;13.70;7.22;;;;;;;22.83;46.10;100724.75;4422796;32;20076;-69
2021/08/11 05:11:44;;;;;;;12.73;7.50;;;;;;;22.81;46.07;100728.16;4423226;32;20109;-69
2021/08/11 05:14:10;;;;;;;12.60;7.20;;;;;;;22.84;45.94;100726.31;4421522;32;20106;-69
2021/08/11 05:16:35;;;;;;;10.23;6.12;;;;;;;22.84;45.95;100726.31;4418184;32;20044;-69
2021/08/11 05:19:01;;;;;;;15.48;6.93;;;;;;;23.01;45.80;100724.97;4426095;32;20417;-69
2021/08/11 05:21:28;;;;;;;14.07;6.45;;;;;;;23.01;45.71;100733.56;4424943;32;20516;-69
2021/08/11 05:23:54;;;;;;;14.95;6.95;;;;;;;23.07;45.54;100725.75;4425546;32;20459;-69
2021/08/11 05:26:19;;;;;;;14.15;6.30;;;;;;;23.26;45.12;100717.38;4422734;32;20073;-69
2021/08/11 05:28:46;;;;;;;12.65;6.35;;;;;;;23.39;44.75;100720.47;4428469;32;20033;-69
2021/08/11 05:31:13;;;;;;;10.35;6.25;;;;;;;23.61;44.36;100728.97;4422780;32;20038;-69
2021/08/11 05:33:39;;;;;;;13.90;6.80;;;;;;;23.57;44.28;100728.47;4423063;32;20034;-69
2021/08/11 05:36:05;;;;;;;16.55;6.40;;;;;;;23.61;44.40;100731.06;4419617;32;20502;-69
2021/08/11 05:38:31;;;;;;;10.80;6.03;;;;;;;23.73;44.05;100726.81;4422510;32;20037;-69
2021/08/11 05:40:59;;;;;;;10.20;6.15;;;;;;;23.74;43.99;100734.91;4427604;32;20280;-69
2021/08/11 05:43:25;;;;;;;12.73;6.15;;;;;;;23.68;43.81;100731.28;4420253;32;20088;-68
2021/08/11 05:45:50;;;;;;;10.93;5.75;;;;;;;23.74;43.86;100737.78;4421407;32;20099;-69
2021/08/11 05:48:18;;;;;;;12.57;7.00;;;;;;;23.84;43.45;100744.78;4421358;32;20072;-69
2021/08/11 05:50:44;;;;;;;16.62;6.43;;;;;;;24.08;43.15;100738.44;4419297;32;20077;-69
2021/08/11 05:53:10;;;;;;;18.12;6.15;;;;;;;23.85;43.49;100740.62;4421451;32;20425;-69
2021/08/11 05:55:36;;;;;;;14.75;6.10;;;;;;;24.05;43.18;100748.13;4425116;32;20155;-69
2021/08/11 05:58:02;;;;;;;9.35;5.80;;;;;;;23.97;43.12;100755.72;4421209;32;20101;-69
2021/08/11 06:00:28;;;;;;;9.23;5.15;;;;;;;24.04;43.17;100750.19;4422178;32;20056;-69
2021/08/11 06:02:56;;;;;;;9.05;5.10;;;;;;;24.11;43.03;100746.75;4420404;32;20480;-69
2021/08/11 06:05:23;;;;;;;8.77;5.53;;;;;;;24.18;42.89;100743.34;4419916;32;20833;-69
2021/08/11 06:07:48;;;;;;;9.48;5.30;;;;;;;24.37;42.44;100749.19;4417534;32;20037;-69
2021/08/11 06:10:14;;;;;;;13.88;6.25;;;;;;;24.54;41.99;100755.63;4421244;32;20052;-69
2021/08/11 06:12:40;;;;;;;14.25;5.18;;;;;;;24.58;42.11;100753.97;4422633;32;20069;-69
2021/08/11 06:15:06;;;;;;;10.65;5.43;;;;;;;24.71;41.79;100748.44;4423168;32;20059;-69
2021/08/11 06:17:42;;;;;;;18.75;6.00;;;;;;;24.89;41.63;100758.47;4419830;32;20451;-69
2021/08/11 06:20:08;;;;;;;12.55;5.72;;;;;;;25.26;40.88;100759.41;4418394;32;20038;-69
2021/08/11 06:22:34;;;;;;;10.90;5.55;;;;;;;25.22;40.91;100761.78;4417272;32;20046;-69
2021/08/11 06:25:00;;;;;;;9.90;5.40;;;;;;;25.12;40.77;100759.81;4422152;32;20090;-69
2021/08/11 06:27:27;;;;;;;10.50;4.70;;;;;;;25.17;40.79;100762.66;4419334;32;20380;-69
2021/08/11 06:29:53;;;;;;;9.23;4.20;;;;;;;25.19;40.66;100765.75;4418334;32;20030;-69
2021/08/11 06:32:18;;;;;;;8.40;4.12;;;;;;;25.37;40.51;100767.16;4422921;32;20029;-69
2021/08/11 06:34:44;;;;;;;9.32;4.28;;;;;;;25.40;40.49;100762.44;4419561;32;20059;-69
2021/08/11 06:37:10;;;;;;;11.70;4.53;;;;;;;25.57;40.22;100765.87;4417575;32;20468;-69
2021/08/11 06:39:35;;;;;;;7.78;3.97;;;;;;;25.69;39.88;100758.66;4422785;32;20146;-69
2021/08/11 06:42:01;;;;;;;11.60;3.92;;;;;;;25.36;40.42;100771.38;4420746;32;20026;-69
2021/08/11 06:44:27;;;;;;;9.68;3.72;;;;;;;25.37;40.42;100769.28;4423543;32;20407;-69
2021/08/11 06:46:52;;;;;;;8.27;3.60;;;;;;;25.59;40.16;100766.91;4419904;32;20156;-69
2021/08/11 06:49:18;;;;;;;9.38;3.50;;;;;;;25.74;39.74;100761.47;4423901;32;20069;-69
2021/08/11 06:51:44;;;;;;;8.52;3.55;;;;;;;25.83;39.63;100763.97;4421335;32;20030;-69
2021/08/11 06:54:12;;;;;;;16.85;4.40;;;;;;;25.96;39.35;100757.50;4419227;32;20026;-69
2021/08/11 06:56:38;;;;;;;6.97;3.85;;;;;;;26.08;39.16;100770.50;4421077;32;20117;-69
2021/08/11 06:59:04;;;;;;;8.88;3.55;;;;;;;26.21;39.05;100765.56;4422253;32;21091;-69
2021/08/11 07:01:29;;;;;;;11.07;4.28;;;;;;;25.90;39.43;100766.25;4421425;32;20128;-69
2021/08/11 07:03:55;;;;;;;9.15;3.53;;;;;;;25.97;39.43;100762.75;4420259;32;20068;-69
2021/08/11 07:06:20;;;;;;;9.48;3.72;;;;;;;26.02;39.33;100756.16;4421442;32;20153;-69
2021/08/11 07:08:46;;;;;;;10.18;3.83;;;;;;;26.30;38.89;100765.19;4422877;32;20021;-69
2021/08/11 07:11:12;;;;;;;6.40;4.00;;;;;;;26.47;38.73;100762.00;4420935;32;20022;-69
2021/08/11 07:13:38;;;;;;;7.47;3.60;;;;;;;26.31;39.00;100755.19;4419735;32;20485;-69
2021/08/11 07:16:04;;;;;;;7.57;3.30;;;;;;;26.38;38.55;100759.56;4424187;32;20437;-69
2021/08/11 07:18:29;;;;;;;7.12;3.35;;;;;;;26.46;38.26;100758.38;4418686;32;20343;-69
2021/08/11 07:20:55;;;;;;;5.72;3.03;;;;;;;26.40;38.33;100754.00;4419452;32;20083;-69
2021/08/11 07:23:21;;;;;;;8.38;3.28;;;;;;;26.40;38.26;100751.09;4419232;32;20190;-69
2021/08/11 07:25:47;;;;;;;8.10;3.72;;;;;;;26.19;38.57;100750.13;4423826;32;20065;-69
2021/08/11 07:28:12;;;;;;;8.07;3.28;;;;;;;26.36;38.06;100748.56;4423912;32;20060;-69
2021/08/11 07:30:38;;;;;;;6.72;3.42;;;;;;;26.33;38.08;100751.75;4422856;32;20082;-69
2021/08/11 07:33:07;;;;;;;9.18;3.80;;;;;;;26.19;38.77;100747.25;4426891;32;20053;-69
2021/08/11 07:35:36;;;;;;;11.75;3.72;;;;;;;26.24;38.80;100752.16;4420088;32;20073;-69
2021/08/11 07:38:03;;;;;;;5.87;3.40;;;;;;;26.32;38.50;100753.09;4421825;32;21324;-69
2021/08/11 07:40:30;;;;;;;7.03;3.25;;;;;;;26.21;38.79;100751.16;4423195;32;20061;-69
2021/08/11 07:42:56;;;;;;;29.55;12.93;;;;;;;26.43;38.54;100752.91;4423817;32;20041;-69
2021/08/11 07:45:25;;;;;;;14.23;6.50;;;;;;;26.51;38.36;100745.19;4424233;32;20162;-69
2021/08/11 07:47:55;;;;;;;10.85;5.40;;;;;;;26.57;38.17;100743.75;4419118;32;20553;-69
2021/08/11 07:50:24;;;;;;;8.00;3.15;;;;;;;26.33;38.74;100741.00;4418058;32;20055;-69
2021/08/11 07:52:50;;;;;;;7.70;3.78;;;;;;;26.59;38.22;100743.97;4423132;32;20073;-69
2021/08/11 07:55:16;;;;;;;11.05;3.92;;;;;;;26.64;38.29;100745.25;4425488;32;20119;-69
2021/08/11 07:57:42;;;;;;;11.45;4.95;;;;;;;26.38;38.90;100742.25;4425175;32;20052;-69
2021/08/11 08:00:10;;;;;;;9.70;4.07;;;;;;;26.30;38.87;100735.53;4420981;32;20517;-69
2021/08/11 08:02:36;;;;;;;11.57;3.60;;;;;;;26.67;38.50;100732.59;4425741;32;20086;-69
2021/08/11 08:05:02;;;;;;;7.53;3.30;;;;;;;26.34;39.00;100745.44;4421924;32;20415;-70
2021/08/11 08:07:29;;;;;;;7.05;3.37;;;;;;;26.42;39.04;100755.00;4422940;32;20553;-69
2021/08/11 08:09:55;;;;;;;7.37;3.50;;;;;;;26.92;37.81;100755.00;4422306;32;20052;-69
2021/08/11 08:12:20;;;;;;;6.12;3.15;;;;;;;27.20;37.54;100760.25;4423047;32;20122;-69
2021/08/11 08:14:46;;;;;;;5.68;3.80;;;;;;;27.27;37.42;100759.59;4418886;32;20038;-69
2021/08/11 08:17:12;;;;;;;10.18;3.92;;;;;;;27.10;37.72;100756.22;4419249;32;20046;-69
2021/08/11 08:19:38;;;;;;;6.68;3.33;;;;;;;27.23;37.42;100757.03;4422002;32;20093;-69
2021/08/11 08:22:03;;;;;;;9.30;3.85;;;;;;;27.27;37.47;100759.59;4424475;32;20112;-69
2021/08/11 08:24:32;;;;;;;6.65;3.55;;;;;;;27.18;37.67;100763.69;4420492;32;20038;-69
2021/08/11 08:26:59;;;;;;;4.75;3.28;;;;;;;26.79;38.20;100760.72;4422550;32;20022;-69
2021/08/11 08:29:25;;;;;;;10.73;3.35;;;;;;;26.88;38.54;100759.53;4421089;32;20046;-69
2021/08/11 08:31:50;;;;;;;6.87;3.55;;;;;;;27.03;38.16;100759.78;4420695;32;20343;-69
2021/08/11 08:34:16;;;;;;;13.45;3.67;;;;;;;27.05;38.11;100760.78;4420980;32;20081;-69
2021/08/11 08:36:42;;;;;;;5.60;3.10;;;;;;;27.01;38.33;100753.78;4420723;32;20081;-69
2021/08/11 08:39:08;;;;;;;9.00;3.62;;;;;;;27.31;37.66;100754.28;4420959;32;20050;-69
2021/08/11 08:41:35;;;;;;;6.45;3.33;;;;;;;27.48;37.30;100762.63;4419876;32;20082;-69
2021/08/11 08:44:01;;;;;;;5.80;3.10;;;;;;;27.50;37.52;100757.84;4418397;32;20056;-69
2021/08/11 08:46:27;;;;;;;7.10;3.60;;;;;;;27.13;37.96;100758.03;4421932;32;20415;-69
2021/08/11 08:48:56;;;;;;;7.95;2.70;;;;;;;27.27;37.48;100750.19;4419497;32;20077;-69
2021/08/11 08:51:23;;;;;;;8.20;3.17;;;;;;;27.22;37.85;100748.91;4419365;32;20140;-69
2021/08/11 08:53:49;;;;;;;7.30;2.83;;;;;;;27.26;37.90;100742.81;4424893;32;20078;-69
2021/08/11 08:56:15;;;;;;;8.07;2.72;;;;;;;27.15;38.25;100753.22;4422011;32;20065;-69
2021/08/11 08:58:42;;;;;;;5.65;2.90;;;;;;;27.38;37.67;100753.62;4422249;32;20104;-68
2021/08/11 09:01:09;;;;;;;6.32;2.85;;;;;;;27.34;37.39;100755.28;4420776;32;20449;-69
2021/08/11 09:03:35;;;;;;;11.15;2.85;;;;;;;26.83;38.22;100754.63;4420511;32;20080;-68
2021/08/11 09:06:01;;;;;;;8.25;3.40;;;;;;;26.48;39.03;100770.13;4420192;32;20165;-69
2021/08/11 09:08:28;;;;;;;7.18;2.62;;;;;;;26.82;38.61;100753.06;4421071;32;20027;-69
2021/08/11 09:10:54;;;;;;;8.90;3.12;;;;;;;26.97;38.27;100744.66;4421864;32;20147;-69
2021/08/11 09:13:22;;;;;;;6.60;2.65;;;;;;;27.31;37.76;100742.72;4421059;32;20030;-69
2021/08/11 09:15:51;;;;;;;7.40;3.12;;;;;;;27.91;36.73;100746.47;4418663;32;20029;-69
2021/08/11 09:18:19;;;;;;;4.68;2.42;;;;;;;28.00;36.19;100728.66;4417736;32;20045;-69
2021/08/11 09:20:48;;;;;;;4.70;2.35;;;;;;;28.69;35.06;100743.31;4420469;32;20231;-69
2021/08/11 09:23:15;;;;;;;11.32;2.72;;;;;;;28.73;34.83;100722.69;4419680;32;20185;-69
2021/08/11 09:26:00;;;;;;;6.18;2.50;;;;;;;29.01;34.71;100729.31;4418626;32;20064;-69
2021/08/11 09:28:29;;;;;;;9.90;5.53;;;;;;;29.38;33.75;100728.03;4416418;32;20399;-68
2021/08/11 09:30:55;;;;;;;9.57;2.53;;;;;;;29.54;33.57;100740.53;4420969;32;20126;-69
2021/08/11 09:33:24;;;;;;;4.68;2.87;;;;;;;29.34;33.88;100738.44;4417946;32;20070;-69
2021/08/11 09:35:50;;;;;;;5.62;2.80;;;;;;;30.01;32.99;100724.34;4420655;32;20100;-69
2021/08/11 09:38:16;;;;;;;5.15;2.40;;;;;;;30.66;31.98;100714.81;4419692;32;20064;-69
2021/08/11 09:40:43;;;;;;;4.22;2.47;;;;;;;30.84;31.48;100728.19;4420409;32;20021;-68
2021/08/11 09:43:12;;;;;;;7.28;3.03;;;;;;;30.94;30.84;100724.72;4416773;32;21363;-69
2021/08/11 09:45:47;;;;;;;4.85;2.80;;;;;;;30.73;31.08;100733.59;4421842;32;20442;-69
2021/08/11 09:48:14;;;;;;;4.47;2.35;;;;;;;30.40;31.56;100740.53;4416457;32;20057;-68
2021/08/11 09:50:49;;;;;;;5.45;2.87;;;;;;;30.03;32.28;100735.37;4420639;32;20092;-68
2021/08/11 09:53:20;;;;;;;6.28;2.60;;;;;;;30.73;31.31;100733.59;4418913;32;20118;-68
2021/08/11 09:55:56;;;;;;;4.45;2.60;;;;;;;30.75;31.59;100734.63;4419165;32;20132;-68
2021/08/11 09:58:21;;;;;;;5.43;2.67;;;;;;;31.42;30.37;100724.31;4418969;32;20081;-68
2021/08/11 10:00:47;;;;;;;4.85;2.35;;;;;;;31.82;29.80;100716.47;4419812;32;20087;-68
2021/08/11 10:03:13;;;;;;;3.37;2.05;;;;;;;30.86;30.91;100736.34;4419892;32;20080;-68
2021/08/11 10:05:39;;;;;;;4.03;2.45;;;;;;;30.94;30.87;100730.53;4420192;32;20451;-68
2021/08/11 10:08:05;;;;;;;5.65;2.60;;;;;;;31.05;30.84;100739.66;4418655;32;20074;-68
2021/08/11 10:10:48;;;;;;;6.65;2.40;;;;;;;30.94;31.21;100727.63;4421010;32;20309;-68
2021/08/11 10:13:20;;;;;;;6.00;2.97;;;;;;;30.91;31.15;100735.37;4421080;32;20474;-68
2021/08/11 10:15:46;;;;;;;4.82;2.70;;;;;;;31.12;31.14;100738.87;4420482;32;20030;-69
2021/08/11 10:18:17;;;;;;;5.68;2.53;;;;;;;31.09;31.25;100736.34;4418985;32;20616;-69
2021/08/11 10:20:46;;;;;;;4.78;2.60;;;;;;;31.82;29.78;100728.09;4418379;32;20056;-68
2021/08/11 10:23:15;;;;;;;5.70;2.70;;;;;;;31.71;30.25;100711.03;4418759;32;20025;-67
2021/08/11 10:25:41;;;;;;;5.45;2.45;;;;;;;31.30;30.79;100699.91;4422177;32;20053;-69
2021/08/11 10:28:07;;;;;;;5.18;2.42;;;;;;;31.50;30.16;100707.59;4419060;32;20092;-69
2021/08/11 10:30:33;;;;;;;7.50;2.95;;;;;;;31.36;30.30;100709.19;4420970;32;20108;-69
2021/08/11 10:33:01;;;;;;;7.12;2.97;;;;;;;31.79;30.11;100717.59;4420070;32;20025;-69
2021/08/11 10:35:29;;;;;;;7.57;3.08;;;;;;;32.10;29.74;100710.31;4419647;32;20107;-68
2021/08/11 10:37:58;;;;;;;5.43;2.90;;;;;;;31.74;30.21;100709.84;4419214;32;20080;-69
2021/08/11 10:40:24;;;;;;;6.22;3.45;;;;;;;32.51;29.41;100735.91;4418752;32;20136;-69
2021/08/11 10:42:53;;;;;;;5.75;2.92;;;;;;;32.73;28.48;100731.25;4419206;32;20090;-69
2021/08/11 10:45:22;;;;;;;4.55;2.90;;;;;;;33.55;27.59;100721.03;4419910;32;20030;-69
2021/08/11 10:47:48;;;;;;;4.35;2.75;;;;;;;34.21;26.52;100706.16;4417247;32;20088;-69
2021/08/11 10:50:14;;;;;;;5.07;2.80;;;;;;;34.75;26.00;100701.06;4417768;32;20085;-69
2021/08/11 10:52:40;;;;;;;4.30;2.40;;;;;;;35.06;25.67;100702.13;4419109;32;20060;-69
2021/08/11 10:55:07;;;;;;;9.35;3.33;;;;;;;34.72;25.34;100707.41;4417694;32;20069;-69
2021/08/11 11:02:52;;;;;;;4.90;2.87;;;;;;;33.76;26.82;100700.94;3980056;32;15022000;-67
2021/08/11 11:10:48;;;;;;;6.47;2.80;;;;;;;34.05;26.43;100709.94;3980242;32;15028924;-69
2021/08/11 11:16:08;;;;;;;4.95;3.42;;;;;;;33.03;28.12;100701.09;3985743;32;15022859;-69
2021/08/11 11:18:33;;;;;;;6.45;3.10;;;;;;;33.03;28.12;100701.09;4436501;32;20108;-69
2021/08/11 11:29:07;;;;;;;7.87;3.37;;;;;;;32.68;28.62;100706.81;3980031;32;15023930;-69
2021/08/11 11:31:51;;;;;;;7.80;3.37;;;;;;;32.68;28.62;100706.81;4434948;32;20088;-69
2021/08/11 11:47:43;;;;;;;7.93;3.85;;;;;;;34.10;26.96;100706.72;3982918;32;15022926;-70
2021/08/11 11:50:25;;;;;;;5.55;3.30;;;;;;;33.03;28.20;100715.69;4447377;32;20569;-68
2021/08/11 11:58:10;;;;;;;7.53;3.40;;;;;;;35.45;25.44;100712.56;3984441;32;15022997;-69
2021/08/11 12:00:37;;;;;;;7.03;3.15;;;;;;;35.45;25.44;100712.56;4446850;32;20025;-69
2021/08/11 12:03:03;;;;;;;5.43;2.97;;;;;;;35.03;25.17;100703.34;4445333;32;20068;-69
2021/08/11 12:05:43;;;;;;;6.90;3.20;;;;;;;34.88;25.37;100703.59;4447147;32;20038;-69
2021/08/11 12:08:10;;;;;;;6.78;3.42;;;;;;;34.53;25.94;100695.59;4448172;32;20017;-69
2021/08/11 12:10:38;;;;;;;4.87;3.03;;;;;;;34.65;26.10;100709.03;4449490;32;20076;-69
2021/08/11 12:13:05;;;;;;;3.92;2.70;;;;;;;34.74;25.98;100698.75;4447504;32;20111;-69
2021/08/11 12:15:33;;;;;;;13.85;3.30;;;;;;;34.49;26.47;100701.91;4448326;32;20077;-69